VTBO

Details ICAO VTBO (TDX)
Name Trat Bangkok Air
Region Thailand
Timezone Asia/Bangkok (UTC+7.0)
Plans Departing 11
Arriving 11
Stats Elevation 85 ft / 26 m (AMSL)
Location 12.275337° 102.319779°
Runways 1
Magnetic Variation 0.501° W
Sunrise 2017-12-10 23:22:46 UTC / 2017-12-11 06:22:46 Local
Sunset 2017-12-11 10:47:50 UTC / 2017-12-11 17:47:50 Local
Advertisement - Login to hide

Runways

ID Width Length Bearing (true) Bearing (mag) Surface Threshold Offset Overrun Length
05 151 ft / 46 m 5,920 ft / 1,804 m 51.11° 51.61° Asphalt 0 ft / 0 m 180 ft / 55 m
23 151 ft / 46 m 5,920 ft / 1,804 m 231.11° 231.61° Asphalt 0 ft / 0 m 210 ft / 64 m

Map

Weather


0- 5 10 15 20 25 30 35+ Temperature / ° C

Clouds and Precipitation
Forecast for 2017-12-11 18:00 UTC. Updated 24 minutes ago

Ground ~20,000 ft ~40,000 ft Winds

METAR

Not found

TAF

TAF VTBO 111100Z 1112/1212 29005KT 8000 FEW025 BECMG 1116/1118 00000KT BECMG 1120/1122 5000 BR BECMG 1201/1203 22005KT 8000 NSW

Frequencies

Tower 122.90 MHz TWR
Approach 118.60 MHz APP
Warning: Do not use this data for real-world aviation or navigation. No guarantee of current accuracy is given.